sensor_id;sensor_type;location;lat;lon;timestamp;temperature;humidity
21207;DHT22;10761;48.532;8.026;2022-07-18T00:00:59;18.30;93.20
21207;DHT22;10761;48.532;8.026;2022-07-18T00:03:25;18.20;93.80
21207;DHT22;10761;48.532;8.026;2022-07-18T00:05:50;18.00;94.30
21207;DHT22;10761;48.532;8.026;2022-07-18T00:08:16;17.90;94.80
21207;DHT22;10761;48.532;8.026;2022-07-18T00:10:42;17.80;94.80
21207;DHT22;10761;48.532;8.026;2022-07-18T00:13:07;17.70;94.70
21207;DHT22;10761;48.532;8.026;2022-07-18T00:15:33;17.70;95.20
21207;DHT22;10761;48.532;8.026;2022-07-18T00:17:58;17.60;95.00
21207;DHT22;10761;48.532;8.026;2022-07-18T00:20:24;17.50;95.80
21207;DHT22;10761;48.532;8.026;2022-07-18T00:22:50;17.40;95.40
21207;DHT22;10761;48.532;8.026;2022-07-18T00:25:16;17.30;95.10
21207;DHT22;10761;48.532;8.026;2022-07-18T00:27:41;17.30;95.20
21207;DHT22;10761;48.532;8.026;2022-07-18T00:30:07;17.30;96.00
21207;DHT22;10761;48.532;8.026;2022-07-18T00:32:33;17.20;98.30
21207;DHT22;10761;48.532;8.026;2022-07-18T00:34:59;17.10;97.70
21207;DHT22;10761;48.532;8.026;2022-07-18T00:37:25;17.00;98.50
21207;DHT22;10761;48.532;8.026;2022-07-18T00:39:50;16.90;98.60
21207;DHT22;10761;48.532;8.026;2022-07-18T00:42:16;16.90;98.60
21207;DHT22;10761;48.532;8.026;2022-07-18T00:44:42;16.80;99.60
21207;DHT22;10761;48.532;8.026;2022-07-18T00:47:07;16.80;99.80
21207;DHT22;10761;48.532;8.026;2022-07-18T00:49:33;16.70;99.90
21207;DHT22;10761;48.532;8.026;2022-07-18T00:51:59;16.70;98.90
21207;DHT22;10761;48.532;8.026;2022-07-18T00:54:25;16.80;99.00
21207;DHT22;10761;48.532;8.026;2022-07-18T00:56:51;16.90;98.30
21207;DHT22;10761;48.532;8.026;2022-07-18T00:59:17;16.90;98.30
21207;DHT22;10761;48.532;8.026;2022-07-18T01:01:43;16.90;98.20
21207;DHT22;10761;48.532;8.026;2022-07-18T01:04:16;17.00;97.70
21207;DHT22;10761;48.532;8.026;2022-07-18T01:06:42;17.10;98.10
21207;DHT22;10761;48.532;8.026;2022-07-18T01:09:08;17.10;98.00
21207;DHT22;10761;48.532;8.026;2022-07-18T01:11:34;17.10;97.40
21207;DHT22;10761;48.532;8.026;2022-07-18T01:14:02;17.10;97.10
21207;DHT22;10761;48.532;8.026;2022-07-18T01:16:28;17.10;96.80
21207;DHT22;10761;48.532;8.026;2022-07-18T01:18:54;17.10;99.20
21207;DHT22;10761;48.532;8.026;2022-07-18T01:21:20;16.90;99.90
21207;DHT22;10761;48.532;8.026;2022-07-18T01:23:45;16.90;99.90
21207;DHT22;10761;48.532;8.026;2022-07-18T01:26:13;16.90;99.90
21207;DHT22;10761;48.532;8.026;2022-07-18T01:28:39;16.90;99.90
21207;DHT22;10761;48.532;8.026;2022-07-18T01:31:05;16.90;99.90
21207;DHT22;10761;48.532;8.026;2022-07-18T01:33:32;16.90;99.90
21207;DHT22;10761;48.532;8.026;2022-07-18T01:36:02;16.80;99.90
21207;DHT22;10761;48.532;8.026;2022-07-18T01:38:29;16.80;99.90
21207;DHT22;10761;48.532;8.026;2022-07-18T01:40:55;16.80;99.90
21207;DHT22;10761;48.532;8.026;2022-07-18T01:43:22;16.70;99.90
21207;DHT22;10761;48.532;8.026;2022-07-18T01:45:48;16.70;99.90
21207;DHT22;10761;48.532;8.026;2022-07-18T01:48:14;16.70;99.90
21207;DHT22;10761;48.532;8.026;2022-07-18T01:50:39;16.80;99.90
21207;DHT22;10761;48.532;8.026;2022-07-18T01:53:05;16.80;99.90
21207;DHT22;10761;48.532;8.026;2022-07-18T01:55:31;16.80;99.90
21207;DHT22;10761;48.532;8.026;2022-07-18T01:57:56;16.70;99.90
21207;DHT22;10761;48.532;8.026;2022-07-18T02:00:22;16.70;99.90
21207;DHT22;10761;48.532;8.026;2022-07-18T02:02:48;16.70;99.90
21207;DHT22;10761;48.532;8.026;2022-07-18T02:05:13;16.60;99.90
21207;DHT22;10761;48.532;8.026;2022-07-18T02:07:41;16.60;99.90
21207;DHT22;10761;48.532;8.026;2022-07-18T02:10:11;16.50;99.90
21207;DHT22;10761;48.532;8.026;2022-07-18T02:12:37;16.50;99.90
21207;DHT22;10761;48.532;8.026;2022-07-18T02:15:05;16.50;99.90
21207;DHT22;10761;48.532;8.026;2022-07-18T02:17:31;16.50;99.90
21207;DHT22;10761;48.532;8.026;2022-07-18T02:19:56;16.50;99.90
21207;DHT22;10761;48.532;8.026;2022-07-18T02:22:22;16.40;99.90
21207;DHT22;10761;48.532;8.026;2022-07-18T02:24:48;16.40;99.90
21207;DHT22;10761;48.532;8.026;2022-07-18T02:27:14;16.30;99.90
21207;DHT22;10761;48.532;8.026;2022-07-18T02:29:39;16.30;99.90
21207;DHT22;10761;48.532;8.026;2022-07-18T02:32:05;16.30;99.90
21207;DHT22;10761;48.532;8.026;2022-07-18T02:34:31;16.30;99.90
21207;DHT22;10761;48.532;8.026;2022-07-18T02:36:56;16.20;99.90
21207;DHT22;10761;48.532;8.026;2022-07-18T02:39:22;16.20;99.90
21207;DHT22;10761;48.532;8.026;2022-07-18T02:41:48;16.20;99.90
21207;DHT22;10761;48.532;8.026;2022-07-18T02:44:14;16.20;99.90
21207;DHT22;10761;48.532;8.026;2022-07-18T02:46:40;16.20;99.90
21207;DHT22;10761;48.532;8.026;2022-07-18T02:49:05;16.20;99.90
21207;DHT22;10761;48.532;8.026;2022-07-18T02:51:31;16.20;99.90
21207;DHT22;10761;48.532;8.026;2022-07-18T02:53:56;16.30;99.90
21207;DHT22;10761;48.532;8.026;2022-07-18T02:56:22;16.30;99.90
21207;DHT22;10761;48.532;8.026;2022-07-18T02:58:48;16.30;99.90
21207;DHT22;10761;48.532;8.026;2022-07-18T03:01:13;16.30;99.90
21207;DHT22;10761;48.532;8.026;2022-07-18T03:03:39;16.20;99.90
21207;DHT22;10761;48.532;8.026;2022-07-18T03:06:05;16.30;99.90
21207;DHT22;10761;48.532;8.026;2022-07-18T03:08:30;16.40;99.90
21207;DHT22;10761;48.532;8.026;2022-07-18T03:10:56;16.30;99.90
21207;DHT22;10761;48.532;8.026;2022-07-18T03:13:21;16.40;99.90
21207;DHT22;10761;48.532;8.026;2022-07-18T03:15:47;16.30;99.90
21207;DHT22;10761;48.532;8.026;2022-07-18T03:18:13;16.30;99.90
21207;DHT22;10761;48.532;8.026;2022-07-18T03:20:38;16.20;99.90
21207;DHT22;10761;48.532;8.026;2022-07-18T03:23:05;16.30;99.90
21207;DHT22;10761;48.532;8.026;2022-07-18T03:25:31;16.20;99.90
21207;DHT22;10761;48.532;8.026;2022-07-18T03:27:57;16.20;99.90
21207;DHT22;10761;48.532;8.026;2022-07-18T03:30:22;16.10;99.90
21207;DHT22;10761;48.532;8.026;2022-07-18T03:32:48;16.10;99.90
21207;DHT22;10761;48.532;8.026;2022-07-18T03:35:14;16.20;99.90
21207;DHT22;10761;48.532;8.026;2022-07-18T03:37:40;16.20;99.90
21207;DHT22;10761;48.532;8.026;2022-07-18T03:40:06;16.10;99.90
21207;DHT22;10761;48.532;8.026;2022-07-18T03:42:32;16.00;99.90
21207;DHT22;10761;48.532;8.026;2022-07-18T03:44:59;15.90;99.90
21207;DHT22;10761;48.532;8.026;2022-07-18T03:47:24;15.80;99.90
21207;DHT22;10761;48.532;8.026;2022-07-18T03:49:50;15.70;99.90
21207;DHT22;10761;48.532;8.026;2022-07-18T03:52:15;15.60;99.90
21207;DHT22;10761;48.532;8.026;2022-07-18T03:54:41;15.60;99.90
21207;DHT22;10761;48.532;8.026;2022-07-18T03:57:06;15.50;99.90
21207;DHT22;10761;48.532;8.026;2022-07-18T03:59:32;15.60;99.90
21207;DHT22;10761;48.532;8.026;2022-07-18T04:01:59;15.60;99.90
21207;DHT22;10761;48.532;8.026;2022-07-18T04:04:24;15.70;99.90
21207;DHT22;10761;48.532;8.026;2022-07-18T04:06:50;15.80;99.90
21207;DHT22;10761;48.532;8.026;2022-07-18T04:09:15;15.90;99.90
21207;DHT22;10761;48.532;8.026;2022-07-18T04:11:41;15.90;99.90
21207;DHT22;10761;48.532;8.026;2022-07-18T04:14:06;15.90;99.90
21207;DHT22;10761;48.532;8.026;2022-07-18T04:16:32;15.90;99.90
21207;DHT22;10761;48.532;8.026;2022-07-18T04:18:57;16.00;99.90
21207;DHT22;10761;48.532;8.026;2022-07-18T04:21:23;16.10;99.90
21207;DHT22;10761;48.532;8.026;2022-07-18T04:23:49;16.10;99.90
21207;DHT22;10761;48.532;8.026;2022-07-18T04:26:15;16.20;99.90
21207;DHT22;10761;48.532;8.026;2022-07-18T04:28:40;16.20;99.90
21207;DHT22;10761;48.532;8.026;2022-07-18T04:31:06;16.20;99.90
21207;DHT22;10761;48.532;8.026;2022-07-18T04:33:31;16.30;99.90
21207;DHT22;10761;48.532;8.026;2022-07-18T04:35:57;16.30;99.90
21207;DHT22;10761;48.532;8.026;2022-07-18T04:38:23;16.30;99.90
21207;DHT22;10761;48.532;8.026;2022-07-18T04:40:48;16.40;99.90
21207;DHT22;10761;48.532;8.026;2022-07-18T04:43:14;16.40;99.90
21207;DHT22;10761;48.532;8.026;2022-07-18T04:45:40;16.50;99.90
21207;DHT22;10761;48.532;8.026;2022-07-18T04:48:05;16.60;99.90
21207;DHT22;10761;48.532;8.026;2022-07-18T04:50:31;16.70;99.90
21207;DHT22;10761;48.532;8.026;2022-07-18T04:52:58;16.80;99.90
21207;DHT22;10761;48.532;8.026;2022-07-18T04:55:25;16.90;99.90
21207;DHT22;10761;48.532;8.026;2022-07-18T04:57:51;17.10;99.90
21207;DHT22;10761;48.532;8.026;2022-07-18T05:00:19;17.20;99.90
21207;DHT22;10761;48.532;8.026;2022-07-18T05:02:47;17.20;99.90
21207;DHT22;10761;48.532;8.026;2022-07-18T05:05:15;17.40;99.90
21207;DHT22;10761;48.532;8.026;2022-07-18T05:07:42;17.40;99.90
21207;DHT22;10761;48.532;8.026;2022-07-18T05:10:10;17.50;99.90
21207;DHT22;10761;48.532;8.026;2022-07-18T05:12:37;17.50;99.90
21207;DHT22;10761;48.532;8.026;2022-07-18T05:15:09;17.40;99.90
21207;DHT22;10761;48.532;8.026;2022-07-18T05:17:39;17.40;99.90
21207;DHT22;10761;48.532;8.026;2022-07-18T05:20:07;17.40;99.90
21207;DHT22;10761;48.532;8.026;2022-07-18T05:22:34;17.40;99.90
21207;DHT22;10761;48.532;8.026;2022-07-18T05:25:00;17.40;99.90
21207;DHT22;10761;48.532;8.026;2022-07-18T05:27:25;17.50;99.90
21207;DHT22;10761;48.532;8.026;2022-07-18T05:29:51;17.70;99.90
21207;DHT22;10761;48.532;8.026;2022-07-18T05:32:17;17.80;99.90
21207;DHT22;10761;48.532;8.026;2022-07-18T05:34:42;17.90;99.90
21207;DHT22;10761;48.532;8.026;2022-07-18T05:37:08;18.10;99.90
21207;DHT22;10761;48.532;8.026;2022-07-18T05:39:34;18.20;99.90
21207;DHT22;10761;48.532;8.026;2022-07-18T05:42:01;18.20;99.90
21207;DHT22;10761;48.532;8.026;2022-07-18T05:44:27;18.10;99.90
21207;DHT22;10761;48.532;8.026;2022-07-18T05:46:52;18.20;99.90
21207;DHT22;10761;48.532;8.026;2022-07-18T05:49:18;18.30;99.90
21207;DHT22;10761;48.532;8.026;2022-07-18T05:51:44;18.50;99.90
21207;DHT22;10761;48.532;8.026;2022-07-18T05:54:10;18.60;99.90
21207;DHT22;10761;48.532;8.026;2022-07-18T05:56:36;18.90;99.90
21207;DHT22;10761;48.532;8.026;2022-07-18T05:59:01;19.10;99.90
21207;DHT22;10761;48.532;8.026;2022-07-18T06:01:27;19.30;99.90
21207;DHT22;10761;48.532;8.026;2022-07-18T06:03:53;19.40;99.90
21207;DHT22;10761;48.532;8.026;2022-07-18T06:06:18;19.60;99.90
21207;DHT22;10761;48.532;8.026;2022-07-18T06:08:44;19.80;99.90
21207;DHT22;10761;48.532;8.026;2022-07-18T06:11:10;19.90;99.90
21207;DHT22;10761;48.532;8.026;2022-07-18T06:13:38;20.30;99.90
21207;DHT22;10761;48.532;8.026;2022-07-18T06:16:04;20.40;99.90
21207;DHT22;10761;48.532;8.026;2022-07-18T06:18:30;20.70;99.90
21207;DHT22;10761;48.532;8.026;2022-07-18T06:20:56;21.00;99.90
21207;DHT22;10761;48.532;8.026;2022-07-18T06:23:22;21.20;99.90
21207;DHT22;10761;48.532;8.026;2022-07-18T06:25:47;21.40;99.90
21207;DHT22;10761;48.532;8.026;2022-07-18T06:28:13;21.50;99.90
21207;DHT22;10761;48.532;8.026;2022-07-18T06:30:39;21.70;99.90
21207;DHT22;10761;48.532;8.026;2022-07-18T06:33:04;21.90;99.90
21207;DHT22;10761;48.532;8.026;2022-07-18T06:35:33;22.00;99.90
21207;DHT22;10761;48.532;8.026;2022-07-18T06:37:58;22.30;99.90
21207;DHT22;10761;48.532;8.026;2022-07-18T06:40:24;22.60;99.90
21207;DHT22;10761;48.532;8.026;2022-07-18T06:42:51;22.70;99.90
21207;DHT22;10761;48.532;8.026;2022-07-18T06:45:17;22.80;99.90
21207;DHT22;10761;48.532;8.026;2022-07-18T06:47:42;22.90;99.90
21207;DHT22;10761;48.532;8.026;2022-07-18T06:50:10;23.20;99.90
21207;DHT22;10761;48.532;8.026;2022-07-18T06:52:37;23.40;99.90
21207;DHT22;10761;48.532;8.026;2022-07-18T06:55:04;23.70;99.90
21207;DHT22;10761;48.532;8.026;2022-07-18T06:57:30;24.00;99.90
21207;DHT22;10761;48.532;8.026;2022-07-18T06:59:56;24.30;99.90
21207;DHT22;10761;48.532;8.026;2022-07-18T07:02:21;24.60;99.90
21207;DHT22;10761;48.532;8.026;2022-07-18T07:04:47;24.80;99.90
21207;DHT22;10761;48.532;8.026;2022-07-18T07:07:12;25.10;99.90
21207;DHT22;10761;48.532;8.026;2022-07-18T07:09:38;25.30;99.90
21207;DHT22;10761;48.532;8.026;2022-07-18T07:12:04;25.60;99.60
21207;DHT22;10761;48.532;8.026;2022-07-18T07:14:29;25.80;99.80
21207;DHT22;10761;48.532;8.026;2022-07-18T07:16:55;25.90;97.50
21207;DHT22;10761;48.532;8.026;2022-07-18T07:19:20;25.70;96.70
21207;DHT22;10761;48.532;8.026;2022-07-18T07:21:46;25.80;97.70
21207;DHT22;10761;48.532;8.026;2022-07-18T07:24:11;25.90;96.80
21207;DHT22;10761;48.532;8.026;2022-07-18T07:26:37;26.10;96.00
21207;DHT22;10761;48.532;8.026;2022-07-18T07:29:03;26.20;95.60
21207;DHT22;10761;48.532;8.026;2022-07-18T07:31:28;26.40;96.80
21207;DHT22;10761;48.532;8.026;2022-07-18T07:33:54;26.60;96.10
21207;DHT22;10761;48.532;8.026;2022-07-18T07:36:20;26.50;95.40
21207;DHT22;10761;48.532;8.026;2022-07-18T07:38:46;26.40;95.60
21207;DHT22;10761;48.532;8.026;2022-07-18T07:41:12;26.50;96.50
21207;DHT22;10761;48.532;8.026;2022-07-18T07:43:38;27.00;96.00
21207;DHT22;10761;48.532;8.026;2022-07-18T07:46:04;27.20;95.50
21207;DHT22;10761;48.532;8.026;2022-07-18T07:48:30;27.50;95.10
21207;DHT22;10761;48.532;8.026;2022-07-18T07:50:56;28.00;95.30
21207;DHT22;10761;48.532;8.026;2022-07-18T07:53:21;28.30;94.10
21207;DHT22;10761;48.532;8.026;2022-07-18T07:55:47;28.20;93.20
21207;DHT22;10761;48.532;8.026;2022-07-18T07:58:13;28.00;92.90
21207;DHT22;10761;48.532;8.026;2022-07-18T08:00:38;28.00;93.50
21207;DHT22;10761;48.532;8.026;2022-07-18T08:03:07;28.40;93.40
21207;DHT22;10761;48.532;8.026;2022-07-18T08:05:36;28.60;91.90
21207;DHT22;10761;48.532;8.026;2022-07-18T08:08:04;29.00;92.00
21207;DHT22;10761;48.532;8.026;2022-07-18T08:10:30;29.30;90.20
21207;DHT22;10761;48.532;8.026;2022-07-18T08:12:56;29.60;84.00
21207;DHT22;10761;48.532;8.026;2022-07-18T08:15:22;29.60;81.90
21207;DHT22;10761;48.532;8.026;2022-07-18T08:17:47;29.50;84.40
21207;DHT22;10761;48.532;8.026;2022-07-18T08:20:14;29.50;83.60
21207;DHT22;10761;48.532;8.026;2022-07-18T08:23:02;29.60;84.40
21207;DHT22;10761;48.532;8.026;2022-07-18T08:25:41;29.70;78.30
21207;DHT22;10761;48.532;8.026;2022-07-18T08:28:08;29.80;78.40
21207;DHT22;10761;48.532;8.026;2022-07-18T08:30:34;29.40;79.20
21207;DHT22;10761;48.532;8.026;2022-07-18T08:33:00;29.70;82.40
21207;DHT22;10761;48.532;8.026;2022-07-18T08:35:29;29.90;79.20
21207;DHT22;10761;48.532;8.026;2022-07-18T08:37:56;30.10;82.60
21207;DHT22;10761;48.532;8.026;2022-07-18T08:40:21;30.50;79.60
21207;DHT22;10761;48.532;8.026;2022-07-18T08:42:50;30.80;80.70
21207;DHT22;10761;48.532;8.026;2022-07-18T08:45:20;30.70;73.50
21207;DHT22;10761;48.532;8.026;2022-07-18T08:47:47;30.70;74.60
21207;DHT22;10761;48.532;8.026;2022-07-18T08:50:13;29.90;74.30
21207;DHT22;10761;48.532;8.026;2022-07-18T08:52:39;30.00;74.60
21207;DHT22;10761;48.532;8.026;2022-07-18T08:55:08;30.30;77.40
21207;DHT22;10761;48.532;8.026;2022-07-18T08:57:34;30.80;76.00
21207;DHT22;10761;48.532;8.026;2022-07-18T09:00:05;30.90;74.00
21207;DHT22;10761;48.532;8.026;2022-07-18T09:02:31;31.00;75.00
21207;DHT22;10761;48.532;8.026;2022-07-18T09:05:00;31.30;75.30
21207;DHT22;10761;48.532;8.026;2022-07-18T09:07:28;31.10;72.40
21207;DHT22;10761;48.532;8.026;2022-07-18T09:09:56;31.10;73.00
21207;DHT22;10761;48.532;8.026;2022-07-18T09:12:27;31.20;71.90
21207;DHT22;10761;48.532;8.026;2022-07-18T09:14:54;31.30;67.50
21207;DHT22;10761;48.532;8.026;2022-07-18T09:17:27;31.60;70.80
21207;DHT22;10761;48.532;8.026;2022-07-18T09:22:41;30.90;70.50
21207;DHT22;10761;48.532;8.026;2022-07-18T09:25:19;30.80;69.30
21207;DHT22;10761;48.532;8.026;2022-07-18T09:27:53;30.80;72.40
21207;DHT22;10761;48.532;8.026;2022-07-18T09:30:30;30.90;73.50
21207;DHT22;10761;48.532;8.026;2022-07-18T09:35:30;31.40;70.50
21207;DHT22;10761;48.532;8.026;2022-07-18T09:38:06;31.20;70.00
21207;DHT22;10761;48.532;8.026;2022-07-18T09:40:36;31.10;70.30
21207;DHT22;10761;48.532;8.026;2022-07-18T09:43:05;31.00;71.80
21207;DHT22;10761;48.532;8.026;2022-07-18T09:45:38;30.90;68.50
21207;DHT22;10761;48.532;8.026;2022-07-18T09:48:06;31.10;69.70
21207;DHT22;10761;48.532;8.026;2022-07-18T09:50:56;31.50;68.40
21207;DHT22;10761;48.532;8.026;2022-07-18T09:53:26;31.80;68.50
21207;DHT22;10761;48.532;8.026;2022-07-18T09:55:54;31.90;71.10
21207;DHT22;10761;48.532;8.026;2022-07-18T09:58:23;31.90;67.40
21207;DHT22;10761;48.532;8.026;2022-07-18T10:00:51;32.00;67.10
21207;DHT22;10761;48.532;8.026;2022-07-18T10:03:18;32.20;66.30
21207;DHT22;10761;48.532;8.026;2022-07-18T10:05:45;32.30;69.60
21207;DHT22;10761;48.532;8.026;2022-07-18T10:08:14;32.60;65.20
21207;DHT22;10761;48.532;8.026;2022-07-18T10:10:42;33.00;67.30
21207;DHT22;10761;48.532;8.026;2022-07-18T10:13:08;32.60;66.70
21207;DHT22;10761;48.532;8.026;2022-07-18T10:15:37;32.20;68.70
21207;DHT22;10761;48.532;8.026;2022-07-18T10:18:06;32.10;66.30
21207;DHT22;10761;48.532;8.026;2022-07-18T10:20:43;31.80;68.00
21207;DHT22;10761;48.532;8.026;2022-07-18T10:23:29;31.90;67.20
21207;DHT22;10761;48.532;8.026;2022-07-18T10:26:14;32.10;69.00
21207;DHT22;10761;48.532;8.026;2022-07-18T10:31:37;32.40;69.50
21207;DHT22;10761;48.532;8.026;2022-07-18T10:37:06;32.90;72.10
21207;DHT22;10761;48.532;8.026;2022-07-18T10:39:42;32.80;71.70
21207;DHT22;10761;48.532;8.026;2022-07-18T10:44:36;32.30;68.90
21207;DHT22;10761;48.532;8.026;2022-07-18T11:03:04;34.20;64.80
21207;DHT22;10761;48.532;8.026;2022-07-18T11:18:27;34.60;63.00
21207;DHT22;10761;48.532;8.026;2022-07-18T11:20:53;34.50;62.60
21207;DHT22;10761;48.532;8.026;2022-07-18T11:23:19;34.40;63.10
21207;DHT22;10761;48.532;8.026;2022-07-18T11:25:50;34.00;61.90
21207;DHT22;10761;48.532;8.026;2022-07-18T11:28:17;33.90;63.90
21207;DHT22;10761;48.532;8.026;2022-07-18T11:30:44;33.90;62.40
21207;DHT22;10761;48.532;8.026;2022-07-18T11:33:27;33.70;60.90
21207;DHT22;10761;48.532;8.026;2022-07-18T11:36:08;33.70;62.00
21207;DHT22;10761;48.532;8.026;2022-07-18T11:38:36;33.80;62.70
21207;DHT22;10761;48.532;8.026;2022-07-18T11:41:03;33.80;66.80
21207;DHT22;10761;48.532;8.026;2022-07-18T11:43:29;34.00;66.50
21207;DHT22;10761;48.532;8.026;2022-07-18T11:46:08;34.20;65.60
21207;DHT22;10761;48.532;8.026;2022-07-18T11:48:35;34.10;64.30
21207;DHT22;10761;48.532;8.026;2022-07-18T11:51:07;33.80;65.00
21207;DHT22;10761;48.532;8.026;2022-07-18T11:53:33;33.60;64.90
21207;DHT22;10761;48.532;8.026;2022-07-18T11:56:04;33.70;64.70
21207;DHT22;10761;48.532;8.026;2022-07-18T11:58:36;33.90;65.50
21207;DHT22;10761;48.532;8.026;2022-07-18T12:01:02;33.80;66.10
21207;DHT22;10761;48.532;8.026;2022-07-18T12:03:28;34.10;63.10
21207;DHT22;10761;48.532;8.026;2022-07-18T12:05:54;33.80;63.00
21207;DHT22;10761;48.532;8.026;2022-07-18T12:16:56;33.90;61.30
21207;DHT22;10761;48.532;8.026;2022-07-18T12:19:31;34.10;63.50
21207;DHT22;10761;48.532;8.026;2022-07-18T12:22:05;34.10;60.90
21207;DHT22;10761;48.532;8.026;2022-07-18T12:27:24;34.40;58.60
21207;DHT22;10761;48.532;8.026;2022-07-18T12:32:26;34.30;58.50
21207;DHT22;10761;48.532;8.026;2022-07-18T12:38:15;34.70;59.40
21207;DHT22;10761;48.532;8.026;2022-07-18T12:40:47;35.40;58.30
21207;DHT22;10761;48.532;8.026;2022-07-18T12:43:15;35.90;56.90
21207;DHT22;10761;48.532;8.026;2022-07-18T12:45:42;35.80;57.20
21207;DHT22;10761;48.532;8.026;2022-07-18T12:48:10;35.80;58.20
21207;DHT22;10761;48.532;8.026;2022-07-18T12:50:36;35.90;56.10
21207;DHT22;10761;48.532;8.026;2022-07-18T12:53:02;36.20;55.70
21207;DHT22;10761;48.532;8.026;2022-07-18T12:55:28;36.00;57.10
21207;DHT22;10761;48.532;8.026;2022-07-18T12:57:53;36.20;58.50
21207;DHT22;10761;48.532;8.026;2022-07-18T13:00:19;36.50;56.70
21207;DHT22;10761;48.532;8.026;2022-07-18T13:02:46;36.00;56.10
21207;DHT22;10761;48.532;8.026;2022-07-18T13:05:12;35.80;56.60
21207;DHT22;10761;48.532;8.026;2022-07-18T13:07:38;35.70;56.60
21207;DHT22;10761;48.532;8.026;2022-07-18T13:10:04;35.60;57.00
21207;DHT22;10761;48.532;8.026;2022-07-18T13:12:30;35.80;56.50
21207;DHT22;10761;48.532;8.026;2022-07-18T13:14:56;35.90;55.00
21207;DHT22;10761;48.532;8.026;2022-07-18T13:17:22;35.80;55.60
21207;DHT22;10761;48.532;8.026;2022-07-18T13:19:48;35.60;57.20
21207;DHT22;10761;48.532;8.026;2022-07-18T13:22:15;35.50;58.10
21207;DHT22;10761;48.532;8.026;2022-07-18T13:24:41;35.40;56.80
21207;DHT22;10761;48.532;8.026;2022-07-18T13:27:06;35.40;58.40
21207;DHT22;10761;48.532;8.026;2022-07-18T13:29:32;35.40;57.60
21207;DHT22;10761;48.532;8.026;2022-07-18T13:31:58;35.30;57.30
21207;DHT22;10761;48.532;8.026;2022-07-18T13:34:24;35.60;57.60
21207;DHT22;10761;48.532;8.026;2022-07-18T13:36:51;35.50;56.90
21207;DHT22;10761;48.532;8.026;2022-07-18T13:39:17;35.50;58.70
21207;DHT22;10761;48.532;8.026;2022-07-18T13:41:43;35.60;57.00
21207;DHT22;10761;48.532;8.026;2022-07-18T13:44:09;36.00;56.40
21207;DHT22;10761;48.532;8.026;2022-07-18T13:46:34;36.30;56.70
21207;DHT22;10761;48.532;8.026;2022-07-18T13:49:00;36.60;57.60
21207;DHT22;10761;48.532;8.026;2022-07-18T13:51:26;37.00;56.80
21207;DHT22;10761;48.532;8.026;2022-07-18T13:53:51;36.80;56.60
21207;DHT22;10761;48.532;8.026;2022-07-18T13:56:17;36.70;56.40
21207;DHT22;10761;48.532;8.026;2022-07-18T14:02:05;36.50;58.20
21207;DHT22;10761;48.532;8.026;2022-07-18T14:04:30;36.70;57.20
21207;DHT22;10761;48.532;8.026;2022-07-18T14:06:56;36.70;56.70
21207;DHT22;10761;48.532;8.026;2022-07-18T14:09:22;36.60;56.50
21207;DHT22;10761;48.532;8.026;2022-07-18T14:11:47;36.40;57.10
21207;DHT22;10761;48.532;8.026;2022-07-18T14:14:13;36.70;56.00
21207;DHT22;10761;48.532;8.026;2022-07-18T14:16:39;37.40;57.30
21207;DHT22;10761;48.532;8.026;2022-07-18T14:19:05;37.40;56.20
21207;DHT22;10761;48.532;8.026;2022-07-18T14:21:31;37.20;59.00
21207;DHT22;10761;48.532;8.026;2022-07-18T14:23:56;37.60;57.00
21207;DHT22;10761;48.532;8.026;2022-07-18T14:26:22;38.20;56.80
21207;DHT22;10761;48.532;8.026;2022-07-18T14:28:49;38.50;56.00
21207;DHT22;10761;48.532;8.026;2022-07-18T14:31:14;38.00;55.70
21207;DHT22;10761;48.532;8.026;2022-07-18T14:33:40;37.80;55.40
21207;DHT22;10761;48.532;8.026;2022-07-18T14:36:06;37.60;57.30
21207;DHT22;10761;48.532;8.026;2022-07-18T14:38:31;37.60;55.90
21207;DHT22;10761;48.532;8.026;2022-07-18T14:40:57;37.40;56.30
21207;DHT22;10761;48.532;8.026;2022-07-18T14:43:23;37.60;56.50
21207;DHT22;10761;48.532;8.026;2022-07-18T14:45:48;37.60;55.80
21207;DHT22;10761;48.532;8.026;2022-07-18T14:48:14;37.40;57.40
21207;DHT22;10761;48.532;8.026;2022-07-18T14:50:40;37.00;57.60
21207;DHT22;10761;48.532;8.026;2022-07-18T14:53:05;36.70;58.40
21207;DHT22;10761;48.532;8.026;2022-07-18T14:55:31;36.30;57.20
21207;DHT22;10761;48.532;8.026;2022-07-18T14:57:57;36.30;57.80
21207;DHT22;10761;48.532;8.026;2022-07-18T15:00:23;36.50;57.60
21207;DHT22;10761;48.532;8.026;2022-07-18T15:02:48;36.30;58.50
21207;DHT22;10761;48.532;8.026;2022-07-18T15:05:14;36.60;58.80
21207;DHT22;10761;48.532;8.026;2022-07-18T15:07:40;36.40;58.10
21207;DHT22;10761;48.532;8.026;2022-07-18T15:10:06;35.90;59.10
21207;DHT22;10761;48.532;8.026;2022-07-18T15:12:32;35.80;59.20
21207;DHT22;10761;48.532;8.026;2022-07-18T15:14:58;36.00;61.40
21207;DHT22;10761;48.532;8.026;2022-07-18T15:17:24;36.20;57.90
21207;DHT22;10761;48.532;8.026;2022-07-18T15:19:50;36.00;57.20
21207;DHT22;10761;48.532;8.026;2022-07-18T15:22:16;35.90;60.30
21207;DHT22;10761;48.532;8.026;2022-07-18T15:24:41;36.00;59.80
21207;DHT22;10761;48.532;8.026;2022-07-18T15:27:07;36.10;58.30
21207;DHT22;10761;48.532;8.026;2022-07-18T15:29:32;36.30;57.00
21207;DHT22;10761;48.532;8.026;2022-07-18T15:31:58;36.00;57.70
21207;DHT22;10761;48.532;8.026;2022-07-18T15:34:25;36.10;58.60
21207;DHT22;10761;48.532;8.026;2022-07-18T15:36:51;36.10;58.60
21207;DHT22;10761;48.532;8.026;2022-07-18T15:39:16;36.40;57.80
21207;DHT22;10761;48.532;8.026;2022-07-18T15:41:42;36.10;57.90
21207;DHT22;10761;48.532;8.026;2022-07-18T15:44:11;35.70;57.80
21207;DHT22;10761;48.532;8.026;2022-07-18T15:46:37;35.60;58.00
21207;DHT22;10761;48.532;8.026;2022-07-18T15:49:03;35.30;59.20
21207;DHT22;10761;48.532;8.026;2022-07-18T15:51:28;35.30;59.00
21207;DHT22;10761;48.532;8.026;2022-07-18T15:53:54;35.40;58.80
21207;DHT22;10761;48.532;8.026;2022-07-18T15:56:19;35.80;59.50
21207;DHT22;10761;48.532;8.026;2022-07-18T15:58:45;36.10;58.30
21207;DHT22;10761;48.532;8.026;2022-07-18T16:01:11;36.50;58.60
21207;DHT22;10761;48.532;8.026;2022-07-18T16:03:36;36.80;56.30
21207;DHT22;10761;48.532;8.026;2022-07-18T16:06:02;37.00;56.80
21207;DHT22;10761;48.532;8.026;2022-07-18T16:08:28;37.10;54.80
21207;DHT22;10761;48.532;8.026;2022-07-18T16:10:54;36.80;55.10
21207;DHT22;10761;48.532;8.026;2022-07-18T16:13:19;36.90;56.00
21207;DHT22;10761;48.532;8.026;2022-07-18T16:15:45;37.10;55.50
21207;DHT22;10761;48.532;8.026;2022-07-18T16:18:12;37.40;56.30
21207;DHT22;10761;48.532;8.026;2022-07-18T16:20:39;37.20;55.20
21207;DHT22;10761;48.532;8.026;2022-07-18T16:23:04;37.20;54.40
21207;DHT22;10761;48.532;8.026;2022-07-18T16:25:30;37.20;54.40
21207;DHT22;10761;48.532;8.026;2022-07-18T16:27:56;37.10;54.30
21207;DHT22;10761;48.532;8.026;2022-07-18T16:30:22;36.80;55.30